createdAt,value
2022-09-13T00:00:50.498Z,2.90
2022-09-13T00:03:19.048Z,2.77
2022-09-13T00:05:47.327Z,2.77
2022-09-13T00:08:15.845Z,2.10
2022-09-13T00:10:44.674Z,2.50
2022-09-13T00:13:15.057Z,2.80
2022-09-13T00:15:44.933Z,2.40
2022-09-13T00:18:13.247Z,2.07
2022-09-13T00:20:41.479Z,2.53
2022-09-13T00:23:09.886Z,2.90
2022-09-13T00:25:38.149Z,2.60
2022-09-13T00:28:06.727Z,2.80
2022-09-13T00:30:36.319Z,2.57
2022-09-13T00:33:04.702Z,3.30
2022-09-13T00:35:33.059Z,2.67
2022-09-13T00:38:01.887Z,2.80
2022-09-13T00:40:31.109Z,2.97
2022-09-13T00:42:59.305Z,2.70
2022-09-13T00:45:27.690Z,2.50
2022-09-13T00:47:58.855Z,3.43
2022-09-13T00:50:29.882Z,2.40
2022-09-13T00:53:00.728Z,3.00
2022-09-13T00:55:31.077Z,2.30
2022-09-13T00:58:04.482Z,2.33
2022-09-13T01:00:32.920Z,2.73
2022-09-13T01:03:05.988Z,2.33
2022-09-13T01:05:35.485Z,2.60
2022-09-13T01:08:04.340Z,2.37
2022-09-13T01:10:33.750Z,2.50
2022-09-13T01:13:04.651Z,2.17
2022-09-13T01:15:32.880Z,2.67
2022-09-13T01:18:01.111Z,2.60
2022-09-13T01:20:39.169Z,2.40
2022-09-13T01:23:22.077Z,2.83
2022-09-13T01:26:05.406Z,2.77
2022-09-13T01:28:56.798Z,2.20
2022-09-13T01:31:29.984Z,2.80
2022-09-13T01:34:04.761Z,2.47
2022-09-13T01:36:41.755Z,2.40
2022-09-13T01:39:12.517Z,2.60
2022-09-13T01:41:50.142Z,2.33
2022-09-13T01:44:28.189Z,2.50
2022-09-13T01:47:01.783Z,2.67
2022-09-13T01:49:32.737Z,2.80
2022-09-13T01:52:02.666Z,2.33
2022-09-13T01:54:34.342Z,2.80
2022-09-13T01:57:03.707Z,3.00
2022-09-13T01:59:37.705Z,2.60
2022-09-13T02:02:09.867Z,2.80
2022-09-13T02:04:40.429Z,2.90
2022-09-13T02:07:14.498Z,3.13
2022-09-13T02:09:44.743Z,3.00
2022-09-13T02:12:16.224Z,2.67
2022-09-13T02:14:46.104Z,3.07
2022-09-13T02:17:16.879Z,2.83
2022-09-13T02:19:49.492Z,3.23
2022-09-13T02:22:18.868Z,2.50
2022-09-13T02:24:50.723Z,3.90
2022-09-13T02:27:21.232Z,2.77
2022-09-13T02:29:52.159Z,2.90
2022-09-13T02:32:23.967Z,3.10
2022-09-13T02:34:54.074Z,3.67
2022-09-13T02:37:22.563Z,2.50
2022-09-13T02:39:52.967Z,3.23
2022-09-13T02:42:22.917Z,3.03
2022-09-13T02:44:53.735Z,3.20
2022-09-13T02:47:33.197Z,3.20
2022-09-13T02:50:09.479Z,2.83
2022-09-13T02:52:42.958Z,2.77
2022-09-13T02:55:17.915Z,2.73
2022-09-13T02:57:53.077Z,2.53
2022-09-13T03:00:21.326Z,2.80
2022-09-13T03:02:55.566Z,2.70
2022-09-13T03:05:24.062Z,2.70
2022-09-13T03:07:52.501Z,2.80
2022-09-13T03:10:20.942Z,2.57
2022-09-13T03:12:55.800Z,2.63
2022-09-13T03:15:30.997Z,2.00
2022-09-13T03:18:07.193Z,2.37
2022-09-13T03:20:40.632Z,2.77
2022-09-13T03:23:17.455Z,2.80
2022-09-13T03:25:54.452Z,1.80
2022-09-13T03:28:26.299Z,2.50
2022-09-13T03:30:57.061Z,2.93
2022-09-13T03:33:30.470Z,3.20
2022-09-13T03:36:02.892Z,2.63
2022-09-13T03:38:33.674Z,3.20
2022-09-13T03:41:03.816Z,2.93
2022-09-13T03:43:36.114Z,2.80
2022-09-13T03:46:06.193Z,2.30
2022-09-13T03:48:37.888Z,2.50
2022-09-13T03:51:06.369Z,2.90
2022-09-13T03:53:37.474Z,3.03
2022-09-13T03:56:13.575Z,3.07
2022-09-13T03:58:41.810Z,3.23
2022-09-13T04:01:10.451Z,3.13
2022-09-13T04:03:40.154Z,2.23
2022-09-13T04:06:08.841Z,3.40
2022-09-13T04:08:37.069Z,2.93
2022-09-13T04:11:05.314Z,3.40
2022-09-13T04:13:33.491Z,2.80
2022-09-13T04:16:03.403Z,3.00
2022-09-13T04:18:32.170Z,2.73
2022-09-13T04:21:02.609Z,3.47
2022-09-13T04:23:31.364Z,2.23
2022-09-13T04:26:03.286Z,2.50
2022-09-13T04:28:31.478Z,2.50
2022-09-13T04:30:59.720Z,2.57
2022-09-13T04:33:27.948Z,2.47
2022-09-13T04:35:56.750Z,2.40
2022-09-13T04:38:26.630Z,2.10
2022-09-13T04:40:55.405Z,2.20
2022-09-13T04:43:23.989Z,1.90
2022-09-13T04:45:52.505Z,2.07
2022-09-13T04:48:20.888Z,2.23
2022-09-13T04:50:49.200Z,2.40
2022-09-13T04:53:18.639Z,3.20
2022-09-13T04:55:48.181Z,2.30
2022-09-13T04:58:16.368Z,2.53
2022-09-13T05:00:44.610Z,2.10
2022-09-13T05:03:13.915Z,2.10
2022-09-13T05:05:42.129Z,2.37
2022-09-13T05:08:10.326Z,2.70
2022-09-13T05:10:38.515Z,2.70
2022-09-13T05:13:08.073Z,2.83
2022-09-13T05:15:36.416Z,2.50
2022-09-13T05:18:05.676Z,2.63
2022-09-13T05:20:33.879Z,2.17
2022-09-13T05:23:02.043Z,2.80
2022-09-13T05:25:30.214Z,2.20
2022-09-13T05:27:58.465Z,2.67
2022-09-13T05:30:31.213Z,2.93
2022-09-13T05:33:01.410Z,2.10
2022-09-13T05:35:30.173Z,2.50
2022-09-13T05:37:58.795Z,2.53
2022-09-13T05:40:27.053Z,2.40
2022-09-13T05:42:55.507Z,2.37
2022-09-13T05:45:23.717Z,2.20
2022-09-13T05:47:54.005Z,2.30
2022-09-13T05:50:45.110Z,2.30
2022-09-13T05:53:10.614Z,2.23
2022-09-13T05:55:38.784Z,2.90
2022-09-13T05:58:06.972Z,2.30
2022-09-13T06:00:35.208Z,2.33
2022-09-13T06:03:04.777Z,2.50
2022-09-13T06:05:32.957Z,3.27
2022-09-13T06:08:02.239Z,2.60
2022-09-13T06:10:30.470Z,2.63
2022-09-13T06:12:58.834Z,2.57
2022-09-13T06:15:27.059Z,2.30
2022-09-13T06:17:55.234Z,2.13
2022-09-13T06:20:25.078Z,2.67
2022-09-13T06:22:53.235Z,2.47
2022-09-13T06:25:21.467Z,2.33
2022-09-13T06:27:50.226Z,2.30
2022-09-13T06:30:19.514Z,1.80
2022-09-13T06:32:47.712Z,2.40
2022-09-13T06:35:16.570Z,1.80
2022-09-13T06:37:46.262Z,2.00
2022-09-13T06:40:14.687Z,2.10
2022-09-13T06:42:42.980Z,2.33
2022-09-13T06:45:11.630Z,2.60
2022-09-13T06:47:39.873Z,2.50
2022-09-13T06:50:09.513Z,2.90
2022-09-13T06:52:37.802Z,2.30
2022-09-13T06:55:12.106Z,2.13
2022-09-13T06:57:41.066Z,1.73
2022-09-13T07:00:10.153Z,2.30
2022-09-13T07:02:38.560Z,2.17
2022-09-13T07:05:07.177Z,2.67
2022-09-13T07:07:35.470Z,3.10
2022-09-13T07:10:03.686Z,3.00
2022-09-13T07:12:33.296Z,2.43
2022-09-13T07:15:01.496Z,2.00
2022-09-13T07:17:31.614Z,3.50
2022-09-13T07:20:00.118Z,2.50
2022-09-13T07:22:28.636Z,2.90
2022-09-13T07:24:57.181Z,2.37
2022-09-13T07:27:25.510Z,2.57
2022-09-13T07:29:55.152Z,2.60
2022-09-13T07:32:23.784Z,2.40
2022-09-13T07:34:51.970Z,3.23
2022-09-13T07:37:20.525Z,2.47
2022-09-13T07:39:49.329Z,2.40
2022-09-13T07:42:17.613Z,3.03
2022-09-13T07:44:46.071Z,2.37
2022-09-13T07:47:15.633Z,2.93
2022-09-13T07:49:43.883Z,3.47
2022-09-13T07:52:12.063Z,3.20
2022-09-13T07:54:40.249Z,2.90
2022-09-13T07:57:08.461Z,3.27
2022-09-13T07:59:38.142Z,3.00
2022-09-13T08:02:06.464Z,3.10
2022-09-13T08:04:36.607Z,3.27
2022-09-13T08:07:04.909Z,3.20
2022-09-13T08:09:33.130Z,2.90
2022-09-13T08:12:01.312Z,2.73
2022-09-13T08:14:29.723Z,3.07
2022-09-13T08:16:58.270Z,3.00
2022-09-13T08:19:26.451Z,3.10
2022-09-13T08:21:56.048Z,2.80
2022-09-13T08:24:24.424Z,2.73
2022-09-13T08:26:52.884Z,2.77
2022-09-13T08:29:21.312Z,3.17
2022-09-13T08:31:49.591Z,3.00
2022-09-13T08:34:18.252Z,3.50
2022-09-13T08:36:47.022Z,3.30
2022-09-13T08:39:16.647Z,3.40
2022-09-13T08:41:59.378Z,3.33
2022-09-13T08:44:29.746Z,3.20
2022-09-13T08:47:01.201Z,3.23
2022-09-13T08:49:31.733Z,3.17
2022-09-13T08:52:01.237Z,2.90
2022-09-13T08:54:31.129Z,3.17
2022-09-13T08:57:02.650Z,2.57
2022-09-13T08:59:39.402Z,3.20
2022-09-13T09:02:14.233Z,2.93
2022-09-13T09:04:47.842Z,2.60
2022-09-13T09:07:18.803Z,3.00
2022-09-13T09:09:51.197Z,2.47
2022-09-13T09:12:22.138Z,2.33
2022-09-13T09:14:58.929Z,2.40
2022-09-13T09:17:29.111Z,1.57
2022-09-13T09:20:00.674Z,2.53
2022-09-13T09:22:31.493Z,1.90
2022-09-13T09:25:01.860Z,2.00
2022-09-13T09:27:31.538Z,2.07
2022-09-13T09:29:59.893Z,2.40
2022-09-13T09:32:39.097Z,2.20
2022-09-13T09:35:12.796Z,1.97
2022-09-13T09:37:42.097Z,2.30
2022-09-13T09:40:14.221Z,2.60
2022-09-13T09:42:44.130Z,2.13
2022-09-13T09:45:30.347Z,2.83
2022-09-13T09:48:01.624Z,1.97
2022-09-13T09:50:31.902Z,2.23
2022-09-13T09:53:03.366Z,2.50
2022-09-13T09:55:34.408Z,2.30
2022-09-13T09:58:04.370Z,3.00
2022-09-13T10:00:34.097Z,2.00
2022-09-13T10:03:04.131Z,3.00
2022-09-13T10:05:33.313Z,2.67
2022-09-13T10:08:03.044Z,3.87
2022-09-13T10:10:37.756Z,4.10
2022-09-13T10:13:07.058Z,4.50
2022-09-13T10:15:36.031Z,3.90
2022-09-13T10:18:39.919Z,4.57
2022-09-13T10:21:05.631Z,4.57
2022-09-13T10:23:34.942Z,3.33
2022-09-13T10:26:10.843Z,4.50
2022-09-13T10:28:44.531Z,5.10
2022-09-13T10:31:17.330Z,4.70
2022-09-13T10:33:48.349Z,4.37
2022-09-13T10:36:35.321Z,2.27
2022-09-13T10:39:07.587Z,4.00
2022-09-13T10:41:39.038Z,3.57
2022-09-13T10:44:09.812Z,3.67
2022-09-13T10:46:42.421Z,4.10
2022-09-13T10:49:32.107Z,3.43
2022-09-13T10:52:00.314Z,2.67
2022-09-13T10:54:28.538Z,3.47
2022-09-13T10:56:58.071Z,2.00
2022-09-13T10:59:29.569Z,2.80
2022-09-13T11:02:16.731Z,3.20
2022-09-13T11:05:01.145Z,3.33
2022-09-13T11:07:36.938Z,3.10
2022-09-13T11:10:07.467Z,1.80
2022-09-13T11:12:40.706Z,2.20
2022-09-13T11:15:18.116Z,2.20
2022-09-13T11:17:56.455Z,3.63
2022-09-13T11:20:28.296Z,2.20
2022-09-13T11:23:14.154Z,2.10
2022-09-13T11:25:50.777Z,2.63
2022-09-13T11:28:24.264Z,2.43
2022-09-13T11:31:03.042Z,3.00
2022-09-13T11:33:35.719Z,2.63
2022-09-13T11:36:13.755Z,2.70
2022-09-13T11:38:48.228Z,2.83
2022-09-13T11:41:22.793Z,3.60
2022-09-13T11:44:13.705Z,2.87
2022-09-13T11:46:43.502Z,2.80
2022-09-13T11:49:32.918Z,2.83
2022-09-13T11:52:08.060Z,3.00
2022-09-13T11:54:40.914Z,2.87
2022-09-13T11:57:11.292Z,3.03
2022-09-13T11:59:43.109Z,3.17
2022-09-13T12:02:16.771Z,3.00
2022-09-13T12:05:11.020Z,3.97
2022-09-13T12:07:39.338Z,3.40
2022-09-13T12:10:15.463Z,3.00
2022-09-13T12:12:44.751Z,3.20
2022-09-13T12:15:18.727Z,3.40
2022-09-13T12:17:49.129Z,2.07
2022-09-13T12:20:20.539Z,3.43
2022-09-13T12:22:49.321Z,3.17
2022-09-13T12:25:21.729Z,3.20
2022-09-13T12:27:54.926Z,3.40
2022-09-13T12:30:25.634Z,2.67
2022-09-13T12:32:58.606Z,2.73
2022-09-13T12:35:30.330Z,2.50
2022-09-13T12:38:16.925Z,2.23
2022-09-13T12:40:52.598Z,2.90
2022-09-13T12:43:26.843Z,2.70
2022-09-13T12:46:18.792Z,2.90
2022-09-13T12:49:04.797Z,3.17
2022-09-13T12:51:39.104Z,2.00
2022-09-13T12:54:26.378Z,2.00
2022-09-13T12:57:05.902Z,1.60
2022-09-13T12:59:52.948Z,1.90
2022-09-13T13:02:29.037Z,1.93
2022-09-13T13:04:58.507Z,2.20
2022-09-13T13:07:26.963Z,1.60
2022-09-13T13:09:56.018Z,1.83
2022-09-13T13:12:29.668Z,1.70
2022-09-13T13:14:58.630Z,1.73
2022-09-13T13:17:38.975Z,1.73
2022-09-13T13:20:25.841Z,1.93
2022-09-13T13:22:55.106Z,1.70
2022-09-13T13:25:32.414Z,1.53
2022-09-13T13:28:00.988Z,2.00
2022-09-13T13:30:41.682Z,2.23
2022-09-13T13:33:19.194Z,1.67
2022-09-13T13:35:48.570Z,2.00
2022-09-13T13:38:31.753Z,2.13
2022-09-13T13:41:12.703Z,2.03
2022-09-13T13:43:41.198Z,2.40
2022-09-13T13:46:26.652Z,2.50
2022-09-13T13:48:56.489Z,2.27
2022-09-13T13:51:29.727Z,2.50
2022-09-13T13:54:01.545Z,2.13
2022-09-13T13:56:32.794Z,1.60
2022-09-13T13:59:02.421Z,1.80
2022-09-13T14:01:33.476Z,1.60
2022-09-13T14:04:12.433Z,1.80
2022-09-13T14:06:49.220Z,2.17
2022-09-13T14:09:32.982Z,1.70
2022-09-13T14:12:09.515Z,2.67
2022-09-13T14:14:47.107Z,2.40
2022-09-13T14:17:37.618Z,2.60
2022-09-13T14:20:10.063Z,2.60
2022-09-13T14:22:38.269Z,2.80
2022-09-13T14:25:18.244Z,2.87
2022-09-13T14:27:47.350Z,3.20
2022-09-13T14:30:20.582Z,2.47
2022-09-13T14:32:50.140Z,2.23
2022-09-13T14:35:25.642Z,2.30
2022-09-13T14:37:57.333Z,2.43
2022-09-13T14:40:27.714Z,2.17
2022-09-13T14:42:57.467Z,2.10
2022-09-13T14:45:27.917Z,1.73
2022-09-13T14:47:58.851Z,2.80
2022-09-13T14:50:28.347Z,1.90
2022-09-13T14:52:59.374Z,2.00
2022-09-13T14:55:28.771Z,2.80
2022-09-13T14:57:59.829Z,2.37
2022-09-13T15:00:28.646Z,2.30
2022-09-13T15:02:59.634Z,2.83
2022-09-13T15:05:29.781Z,2.60
2022-09-13T15:07:59.420Z,2.80
2022-09-13T15:10:28.460Z,2.90
2022-09-13T15:12:57.787Z,2.67
2022-09-13T15:15:29.171Z,2.20
2022-09-13T15:17:58.638Z,2.60
2022-09-13T15:20:28.344Z,2.50
2022-09-13T15:22:56.861Z,2.70
2022-09-13T15:25:28.144Z,2.17
2022-09-13T15:27:57.357Z,2.90
2022-09-13T15:30:27.053Z,2.40
2022-09-13T15:33:16.266Z,2.97
2022-09-13T15:35:45.300Z,3.60
2022-09-13T15:38:18.285Z,2.13
2022-09-13T15:40:48.671Z,2.80
2022-09-13T15:43:16.834Z,2.90
2022-09-13T15:45:45.126Z,2.87
2022-09-13T15:48:20.946Z,3.00
2022-09-13T15:51:05.552Z,3.17
2022-09-13T15:53:34.016Z,2.90
2022-09-13T15:56:04.270Z,3.20
2022-09-13T15:58:32.744Z,3.63
2022-09-13T16:01:02.483Z,3.70
2022-09-13T16:03:32.384Z,3.90
2022-09-13T16:06:01.118Z,3.67
2022-09-13T16:08:29.785Z,3.23
2022-09-13T16:10:59.064Z,3.77
2022-09-13T16:13:28.623Z,3.50
2022-09-13T16:15:58.619Z,4.20
2022-09-13T16:18:27.294Z,3.43
2022-09-13T16:20:56.977Z,3.53
2022-09-13T16:23:25.153Z,3.03
2022-09-13T16:25:55.894Z,3.13
2022-09-13T16:28:24.918Z,3.27
2022-09-13T16:30:54.967Z,3.20
2022-09-13T16:33:24.179Z,2.90
2022-09-13T16:35:52.372Z,3.40
2022-09-13T16:38:20.883Z,3.10
2022-09-13T16:40:49.526Z,3.30
2022-09-13T16:43:18.053Z,3.23
2022-09-13T16:45:50.325Z,3.63
2022-09-13T16:48:22.481Z,3.97
2022-09-13T16:50:50.729Z,3.93
2022-09-13T16:53:18.959Z,3.70
2022-09-13T16:55:47.356Z,4.10
2022-09-13T16:58:15.576Z,3.10
2022-09-13T17:00:45.304Z,4.37
2022-09-13T17:03:13.552Z,4.00
2022-09-13T17:05:43.186Z,3.53
2022-09-13T17:08:11.375Z,3.20
2022-09-13T17:10:40.600Z,3.60
2022-09-13T17:13:09.141Z,3.60
2022-09-13T17:15:46.376Z,3.30
2022-09-13T17:18:14.644Z,3.40
2022-09-13T17:20:49.401Z,3.93
2022-09-13T17:23:18.379Z,3.20
2022-09-13T17:25:48.223Z,3.00
2022-09-13T17:28:16.894Z,3.77
2022-09-13T17:30:46.062Z,2.90
2022-09-13T17:33:14.837Z,3.40
2022-09-13T17:35:43.553Z,3.97
2022-09-13T17:38:15.098Z,4.30
2022-09-13T17:40:43.318Z,4.10
2022-09-13T17:43:11.531Z,3.37
2022-09-13T17:45:40.788Z,3.57
2022-09-13T17:48:09.052Z,3.90
2022-09-13T17:50:37.302Z,3.50
2022-09-13T17:53:07.730Z,4.47
2022-09-13T17:55:37.546Z,4.37
2022-09-13T17:58:11.726Z,4.63
2022-09-13T18:00:40.016Z,4.53
2022-09-13T18:03:08.320Z,4.20
2022-09-13T18:05:36.714Z,4.13
2022-09-13T18:08:05.165Z,4.43
2022-09-13T18:10:58.069Z,4.60
2022-09-13T18:13:23.951Z,6.00
2022-09-13T18:15:59.716Z,5.67
2022-09-13T18:18:27.994Z,5.37
2022-09-13T18:20:56.241Z,5.90
2022-09-13T18:23:25.531Z,5.73
2022-09-13T18:26:03.419Z,4.90
2022-09-13T18:28:34.677Z,6.80
2022-09-13T18:31:05.675Z,5.73
2022-09-13T18:33:34.826Z,7.03
2022-09-13T18:36:03.945Z,6.13
2022-09-13T18:38:33.287Z,7.00
2022-09-13T18:41:02.382Z,7.50
2022-09-13T18:43:31.364Z,5.70
2022-09-13T18:46:05.009Z,6.53
2022-09-13T18:48:34.215Z,5.57
2022-09-13T18:51:02.674Z,4.97
2022-09-13T18:53:34.790Z,5.30
2022-09-13T18:56:03.975Z,4.90
2022-09-13T18:58:33.970Z,5.53
2022-09-13T19:01:06.005Z,5.30
2022-09-13T19:03:36.022Z,5.40
2022-09-13T19:06:14.749Z,5.27
2022-09-13T19:08:43.636Z,5.50
2022-09-13T19:11:29.101Z,5.90
2022-09-13T19:14:00.357Z,4.80
2022-09-13T19:16:30.068Z,4.60
2022-09-13T19:18:58.293Z,6.03
2022-09-13T19:21:30.108Z,5.10
2022-09-13T19:24:03.073Z,5.30
2022-09-13T19:26:34.328Z,4.50
2022-09-13T19:29:06.033Z,5.20
2022-09-13T19:31:36.724Z,4.70
2022-09-13T19:34:06.250Z,3.97
2022-09-13T19:36:35.866Z,5.07
2022-09-13T19:39:05.158Z,3.63
2022-09-13T19:41:33.429Z,3.17
2022-09-13T19:44:02.341Z,3.23
2022-09-13T19:46:32.124Z,3.83
2022-09-13T19:49:02.419Z,4.30
2022-09-13T19:51:32.876Z,4.10
2022-09-13T19:54:01.812Z,4.07
2022-09-13T19:56:32.076Z,3.40
2022-09-13T19:59:00.681Z,3.53
2022-09-13T20:01:31.108Z,4.13
2022-09-13T20:04:00.409Z,2.93
2022-09-13T20:06:31.707Z,3.57
2022-09-13T20:09:00.851Z,3.27
2022-09-13T20:11:29.712Z,3.50
2022-09-13T20:13:59.454Z,3.30
2022-09-13T20:16:29.011Z,3.50
2022-09-13T20:18:59.737Z,3.13
2022-09-13T20:21:30.061Z,3.80
2022-09-13T20:24:00.662Z,3.80
2022-09-13T20:26:31.013Z,3.77
2022-09-13T20:29:00.478Z,3.73
2022-09-13T20:31:31.815Z,3.23
2022-09-13T20:34:01.126Z,4.27
2022-09-13T20:36:34.853Z,3.83
2022-09-13T20:39:04.801Z,4.10
2022-09-13T20:41:33.120Z,3.63
2022-09-13T20:44:01.808Z,4.10
2022-09-13T20:46:31.488Z,3.20
2022-09-13T20:49:00.123Z,4.20
2022-09-13T20:51:32.656Z,3.43
2022-09-13T20:54:04.176Z,4.30
2022-09-13T20:56:33.827Z,3.30
2022-09-13T20:59:02.052Z,3.63
2022-09-13T21:01:31.607Z,3.03
2022-09-13T21:04:00.356Z,3.87
2022-09-13T21:06:29.275Z,2.90
2022-09-13T21:09:00.266Z,2.30
2022-09-13T21:11:33.194Z,2.97
2022-09-13T21:14:02.049Z,2.03
2022-09-13T21:16:31.313Z,3.03
2022-09-13T21:19:00.901Z,2.23
2022-09-13T21:21:30.577Z,3.33
2022-09-13T21:24:00.488Z,3.23
2022-09-13T21:26:30.999Z,2.30
2022-09-13T21:29:00.108Z,3.80
2022-09-13T21:31:29.113Z,4.43
2022-09-13T21:33:57.835Z,4.00
2022-09-13T21:36:27.117Z,4.40
2022-09-13T21:38:56.309Z,4.70
2022-09-13T21:41:25.527Z,1.97
2022-09-13T21:43:55.578Z,2.60
2022-09-13T21:46:25.039Z,4.07
2022-09-13T21:48:53.986Z,3.20
2022-09-13T21:51:25.127Z,4.67
2022-09-13T21:53:58.415Z,5.40
2022-09-13T21:56:27.668Z,3.10
2022-09-13T21:58:58.566Z,3.00
2022-09-13T22:01:27.861Z,2.73
2022-09-13T22:03:56.729Z,5.47
2022-09-13T22:06:32.742Z,6.27
2022-09-13T22:09:03.082Z,3.53
2022-09-13T22:11:32.272Z,6.43
2022-09-13T22:14:02.604Z,7.00
2022-09-13T22:16:31.941Z,4.30
2022-09-13T22:19:04.275Z,4.43
2022-09-13T22:21:37.347Z,3.57
2022-09-13T22:24:06.544Z,6.73
2022-09-13T22:26:36.027Z,3.73
2022-09-13T22:29:05.979Z,2.83
2022-09-13T22:31:36.336Z,3.67
2022-09-13T22:34:05.187Z,3.57
2022-09-13T22:36:33.467Z,2.90
2022-09-13T22:39:01.689Z,3.67
2022-09-13T22:41:31.056Z,5.00
2022-09-13T22:43:59.733Z,3.83
2022-09-13T22:46:30.761Z,7.40
2022-09-13T22:48:59.017Z,3.83
2022-09-13T22:51:27.546Z,2.93
2022-09-13T22:53:56.215Z,3.50
2022-09-13T22:56:25.405Z,7.33
2022-09-13T22:58:55.130Z,8.27
2022-09-13T23:01:23.521Z,9.70
2022-09-13T23:03:53.821Z,10.23
2022-09-13T23:06:22.931Z,9.50
2022-09-13T23:08:52.757Z,8.83
2022-09-13T23:11:23.918Z,4.90
2022-09-13T23:13:53.756Z,3.93
2022-09-13T23:16:23.009Z,8.90
2022-09-13T23:18:53.341Z,4.30
2022-09-13T23:21:22.447Z,4.33
2022-09-13T23:23:50.824Z,4.20
2022-09-13T23:26:19.998Z,12.17
2022-09-13T23:28:49.118Z,12.17
2022-09-13T23:31:18.288Z,11.67
2022-09-13T23:33:47.500Z,12.10
2022-09-13T23:36:20.819Z,12.00
2022-09-13T23:38:50.493Z,14.77
2022-09-13T23:41:19.310Z,13.80
2022-09-13T23:43:47.599Z,12.70
2022-09-13T23:46:16.121Z,13.20
2022-09-13T23:48:44.882Z,13.97
2022-09-13T23:51:14.080Z,15.03
2022-09-13T23:53:43.762Z,13.20
2022-09-13T23:56:12.107Z,14.43
2022-09-13T23:58:40.659Z,14.77
